Time;durP1;ratioP1;P1;durP2;ratioP2;P2;SDS_P1;SDS_P2;PMS_P1;PMS_P2;Temp;Humidity;BMP_temperature;BMP_pressure;BME280_temperature;BME280_humidity;BME280_pressure;Samples;Min_cycle;Max_cycle;Signal;HPM_P1;HPM_P2
2023/08/30 00:00:54;;;;;;;3.03;1.00;;;;;;;22.53;64.77;100036.31;5071505;28;20394;-76
2023/08/30 00:03:20;;;;;;;2.87;0.80;;;;;;;22.48;64.64;100012.78;5071248;28;20375;-77
2023/08/30 00:05:46;;;;;;;2.50;0.88;;;;;;;22.45;64.70;100007.91;5071017;28;20399;-75
2023/08/30 00:08:13;;;;;;;3.33;1.13;;;;;;;22.26;65.43;100022.97;5053276;28;20398;-76
2023/08/30 00:10:44;;;;;;;1.33;0.60;;;;;;;22.38;65.03;100039.75;5053278;28;20383;-75
2023/08/30 00:13:09;;;;;;;0.98;0.57;;;;;;;22.57;64.06;100063.59;5052536;28;20386;-75
2023/08/30 00:15:37;;;;;;;1.15;0.60;;;;;;;22.78;63.49;100069.84;5070692;28;20960;-76
2023/08/30 00:18:03;;;;;;;1.13;0.52;;;;;;;22.86;62.90;100047.72;5071066;28;20394;-76
2023/08/30 00:20:29;;;;;;;0.77;0.68;;;;;;;22.89;62.70;100034.47;5071046;28;20378;-76
2023/08/30 00:22:55;;;;;;;0.77;0.50;;;;;;;22.85;62.75;100032.56;5070972;28;20448;-75
2023/08/30 00:25:21;;;;;;;1.23;0.80;;;;;;;22.63;63.58;100044.41;5070797;28;20402;-76
2023/08/30 00:27:46;;;;;;;0.57;0.45;;;;;;;22.53;63.73;100056.00;5071062;28;20387;-76
2023/08/30 00:30:12;;;;;;;1.05;0.70;;;;;;;22.68;63.40;100084.16;5070777;28;20467;-75
2023/08/30 00:32:38;;;;;;;0.90;0.60;;;;;;;22.76;62.83;100096.31;5070570;28;20804;-75
2023/08/30 00:35:05;;;;;;;1.00;0.60;;;;;;;22.82;62.64;100115.00;5052738;28;20386;-76
2023/08/30 00:37:30;;;;;;;0.82;0.60;;;;;;;22.90;62.29;100117.19;5069314;28;20793;-76
2023/08/30 00:39:57;;;;;;;0.77;0.47;;;;;;;22.94;62.12;100109.34;5070705;28;20370;-76
2023/08/30 00:42:25;;;;;;;0.43;0.33;;;;;;;22.95;61.83;100097.44;5071428;28;20754;-76
2023/08/30 00:44:52;;;;;;;1.15;0.70;;;;;;;22.97;61.85;100097.19;5070236;28;20395;-75
2023/08/30 00:47:17;;;;;;;0.95;0.55;;;;;;;22.79;62.59;100088.50;5052837;28;20380;-76
2023/08/30 00:49:43;;;;;;;0.90;0.70;;;;;;;22.81;62.54;100097.13;5070676;28;20843;-75
2023/08/30 00:52:10;;;;;;;0.90;0.68;;;;;;;22.82;62.37;100104.19;5070276;28;20406;-75
2023/08/30 00:54:37;;;;;;;0.88;0.65;;;;;;;22.94;61.96;100114.75;5069330;28;20479;-77
2023/08/30 00:57:05;;;;;;;1.25;0.70;;;;;;;22.96;61.51;100107.19;5051585;28;20728;-75
2023/08/30 00:59:34;;;;;;;1.38;0.75;;;;;;;23.02;61.55;100098.00;5050622;28;20386;-74
2023/08/30 01:02:01;;;;;;;1.25;0.68;;;;;;;23.07;61.20;100121.56;5050760;28;20387;-77
2023/08/30 01:04:30;;;;;;;1.20;0.70;;;;;;;23.07;61.36;100130.47;5034413;28;20418;-76
2023/08/30 01:06:58;;;;;;;1.10;0.70;;;;;;;23.09;61.18;100127.50;5050497;28;20382;-75
2023/08/30 01:09:25;;;;;;;1.52;0.90;;;;;;;23.12;61.34;100140.50;5067292;28;20385;-74
2023/08/30 01:12:16;;;;;;;1.60;0.90;;;;;;;23.09;61.08;100141.03;5051773;28;20436;-76
2023/08/30 01:15:10;;;;;;;0.90;0.60;;;;;;;23.03;61.47;100142.06;5048812;28;20754;-75
2023/08/30 01:17:37;;;;;;;0.88;0.50;;;;;;;22.97;61.85;100141.22;5037518;28;20403;-74
2023/08/30 01:20:18;;;;;;;0.60;0.40;;;;;;;23.04;61.61;100135.59;5051959;28;20393;-74
2023/08/30 01:23:06;;;;;;;0.60;0.50;;;;;;;23.03;61.69;100123.97;5052247;28;20406;-74
2023/08/30 01:25:50;;;;;;;0.55;0.40;;;;;;;23.09;61.57;100132.91;5034541;28;20504;-76
2023/08/30 01:28:20;;;;;;;0.60;0.38;;;;;;;23.12;61.56;100145.91;5069570;28;20482;-75
2023/08/30 01:30:47;;;;;;;0.57;0.47;;;;;;;23.14;61.36;100151.03;5035385;28;20765;-76
2023/08/30 01:33:15;;;;;;;0.70;0.47;;;;;;;23.14;61.31;100165.38;5069916;28;20437;-76
2023/08/30 01:35:43;;;;;;;0.82;0.50;;;;;;;23.12;61.34;100174.81;5051659;28;20398;-77
2023/08/30 01:38:17;;;;;;;0.80;0.47;;;;;;;23.10;61.44;100175.09;5051963;28;20474;-75
2023/08/30 01:40:44;;;;;;;0.90;0.60;;;;;;;23.11;61.54;100184.03;5069599;28;20414;-75
2023/08/30 01:43:12;;;;;;;2.80;1.13;;;;;;;23.17;61.49;100178.34;5051533;28;20391;-76
2023/08/30 01:45:41;;;;;;;1.10;0.70;;;;;;;23.12;61.21;100166.72;5051790;28;20453;-76
2023/08/30 01:48:14;;;;;;;1.17;0.80;;;;;;;22.88;62.41;100159.03;5034963;28;20977;-76
2023/08/30 01:50:42;;;;;;;0.57;0.40;;;;;;;22.75;63.14;100160.34;5051572;28;20391;-75
2023/08/30 01:53:08;;;;;;;0.52;0.50;;;;;;;22.69;63.45;100156.03;5069288;28;20410;-77
2023/08/30 01:55:35;;;;;;;0.77;0.45;;;;;;;22.57;63.93;100142.72;5051231;28;20889;-74
2023/08/30 01:58:01;;;;;;;0.82;0.60;;;;;;;22.37;64.79;100118.34;5051341;28;20387;-76
2023/08/30 02:00:28;;;;;;;1.00;0.57;;;;;;;22.24;65.55;100081.81;5051592;28;20464;-76
2023/08/30 02:02:54;;;;;;;0.70;0.40;;;;;;;22.08;65.55;100062.00;5051410;28;21202;-77
2023/08/30 02:05:20;;;;;;;0.43;0.40;;;;;;;22.20;65.06;100081.50;5069247;28;20414;-76
2023/08/30 02:08:04;;;;;;;0.73;0.50;;;;;;;22.47;64.38;100083.25;5069279;28;20383;-76
2023/08/30 02:10:44;;;;;;;1.27;1.15;;;;;;;22.58;63.96;100090.34;5051380;28;20379;-76
2023/08/30 02:13:12;;;;;;;1.90;0.70;;;;;;;22.28;64.92;100093.72;5051255;28;20399;-76
2023/08/30 02:15:39;;;;;;;0.90;0.65;;;;;;;22.30;64.63;100097.78;5068032;28;20395;-76
2023/08/30 02:18:07;;;;;;;0.70;0.50;;;;;;;22.45;64.22;100088.91;5050854;28;20391;-77
2023/08/30 02:20:33;;;;;;;1.00;0.43;;;;;;;22.58;63.36;100086.81;5051410;28;20387;-77
2023/08/30 02:23:00;;;;;;;0.50;0.40;;;;;;;;;;5051322;28;20390;-75
2023/08/30 02:25:26;;;;;;;2.07;1.53;;;;;;;22.76;62.82;100116.06;5069358;28;20403;-75
2023/08/30 02:27:51;;;;;;;0.77;0.40;;;;;;;22.74;62.75;100106.59;5069261;28;20458;-75
2023/08/30 02:30:17;;;;;;;0.63;0.43;;;;;;;22.68;63.05;100120.06;5069635;28;20687;-77
2023/08/30 02:32:44;;;;;;;0.77;0.43;;;;;;;22.73;62.91;100137.41;5068750;28;20376;-76
2023/08/30 02:35:09;;;;;;;0.68;0.40;;;;;;;22.73;63.11;100143.59;5051140;28;20390;-76
2023/08/30 02:37:36;;;;;;;0.83;0.57;;;;;;;22.71;63.04;100137.66;5051081;28;20384;-76
2023/08/30 02:40:02;;;;;;;0.80;0.50;;;;;;;22.77;63.06;100133.09;5068273;28;20375;-76
2023/08/30 02:42:29;;;;;;;0.57;0.35;;;;;;;22.80;62.83;100122.56;5069154;28;20505;-75
2023/08/30 02:44:55;;;;;;;1.13;0.68;;;;;;;22.89;62.52;100122.84;5069162;28;20441;-75
2023/08/30 02:47:21;;;;;;;0.57;0.40;;;;;;;22.91;62.25;100109.88;5068857;28;20413;-76
2023/08/30 02:49:47;;;;;;;1.02;0.73;;;;;;;22.84;62.84;100106.63;5051305;28;20406;-76
2023/08/30 02:52:12;;;;;;;1.45;0.82;;;;;;;22.78;63.10;100103.09;5068898;28;20477;-75
2023/08/30 02:54:39;;;;;;;1.20;0.80;;;;;;;22.70;63.42;100084.69;5068415;28;20493;-75
2023/08/30 02:57:05;;;;;;;0.85;0.50;;;;;;;;;;5033092;28;20532;-76
2023/08/30 02:59:30;;;;;;;1.10;0.70;;;;;;;22.61;64.09;100046.56;5068644;28;20863;-76
2023/08/30 03:01:56;;;;;;;1.20;0.70;;;;;;;22.50;64.16;100037.63;5068685;28;20860;-75
2023/08/30 03:04:21;;;;;;;1.60;0.73;;;;;;;22.44;64.34;100027.91;5069459;28;20402;-75
2023/08/30 03:06:47;;;;;;;1.00;0.50;;;;;;;22.53;64.19;100022.78;5050996;28;20398;-77
2023/08/30 03:09:14;;;;;;;0.63;0.40;;;;;;;22.43;64.35;100028.97;5033002;28;20391;-75
2023/08/30 03:11:39;;;;;;;0.80;0.50;;;;;;;22.38;64.64;100030.84;5069109;28;20387;-76
2023/08/30 03:14:05;;;;;;;0.85;0.47;;;;;;;22.29;64.83;100025.13;5068602;28;20379;-76
2023/08/30 03:16:30;;;;;;;0.77;0.47;;;;;;;22.28;64.98;100027.03;5068776;28;20757;-76
2023/08/30 03:18:56;;;;;;;1.60;1.20;;;;;;;22.13;65.41;100024.25;5068797;28;20769;-74
2023/08/30 03:21:21;;;;;;;0.68;0.52;;;;;;;21.89;66.37;100021.97;5068202;28;20382;-76
2023/08/30 03:23:47;;;;;;;0.80;0.40;;;;;;;22.06;65.92;100054.19;5067921;28;20379;-76
2023/08/30 03:26:15;;;;;;;0.83;0.43;;;;;;;22.37;64.89;100084.03;5068514;28;20402;-77
2023/08/30 03:28:42;;;;;;;1.10;0.60;;;;;;;22.42;64.55;100097.56;5068235;28;20410;-77
2023/08/30 03:31:22;;;;;;;0.57;0.40;;;;;;;22.35;64.62;100105.09;5050467;28;20402;-76
2023/08/30 03:33:48;;;;;;;0.80;0.50;;;;;;;22.37;64.59;100113.75;5034320;28;20391;-78
2023/08/30 03:36:16;;;;;;;0.93;0.55;;;;;;;22.38;64.55;100103.75;5068277;28;20389;-77
2023/08/30 03:38:42;;;;;;;0.73;0.40;;;;;;;22.30;64.41;100122.06;5068376;28;20377;-77
2023/08/30 03:41:11;;;;;;;2.07;0.83;;;;;;;22.33;64.50;100126.16;5067099;28;20417;-75
2023/08/30 03:43:37;;;;;;;1.10;0.60;;;;;;;22.18;65.17;100097.13;5068038;28;20409;-76
2023/08/30 03:46:03;;;;;;;1.13;0.73;;;;;;;22.13;65.43;100091.75;5049933;28;20395;-76
2023/08/30 03:48:29;;;;;;;1.00;0.60;;;;;;;22.17;64.95;100092.03;5069765;28;20447;-76
2023/08/30 03:50:55;;;;;;;1.17;0.60;;;;;;;22.34;64.70;100100.75;5053788;28;20386;-75
2023/08/30 03:53:21;;;;;;;0.90;0.50;;;;;;;22.43;64.23;100095.66;5053720;28;20448;-76
2023/08/30 03:55:47;;;;;;;0.95;0.52;;;;;;;22.51;63.93;100089.78;5054179;28;20474;-75
2023/08/30 03:58:12;;;;;;;0.50;0.30;;;;;;;22.59;63.60;100097.34;5036194;28;20467;-77
2023/08/30 04:00:39;;;;;;;1.15;0.88;;;;;;;22.60;63.14;100104.38;5071835;28;20383;-77
2023/08/30 04:03:05;;;;;;;0.95;0.50;;;;;;;;;;5071534;28;20382;-78
2023/08/30 04:05:34;;;;;;;0.90;0.60;;;;;;;22.55;63.66;100107.06;5071073;28;20407;-78
2023/08/30 04:07:59;;;;;;;0.60;0.40;;;;;;;22.51;63.68;100114.09;5053278;28;20456;-78
2023/08/30 04:10:25;;;;;;;1.00;0.60;;;;;;;22.53;63.68;100118.13;5071826;28;20838;-78
2023/08/30 04:12:51;;;;;;;0.50;0.30;;;;;;;22.59;63.42;100124.38;5054370;28;20394;-77
2023/08/30 04:15:17;;;;;;;1.20;0.63;;;;;;;22.67;62.89;100129.28;5072146;28;20383;-77
2023/08/30 04:17:43;;;;;;;1.30;0.60;;;;;;;22.74;62.82;100123.59;5053752;28;20379;-77
2023/08/30 04:20:10;;;;;;;1.23;0.60;;;;;;;22.77;62.73;100125.78;5053247;28;20423;-76
2023/08/30 04:22:36;;;;;;;1.20;0.60;;;;;;;22.77;62.68;100128.47;5071501;28;20417;-78
2023/08/30 04:25:02;;;;;;;1.80;0.83;;;;;;;22.76;62.55;100123.34;5071681;28;20406;-77
2023/08/30 04:27:29;;;;;;;0.83;0.40;;;;;;;22.69;62.75;100112.78;5071633;28;20450;-77
2023/08/30 04:29:54;;;;;;;1.80;0.65;;;;;;;22.64;63.33;100116.28;5071198;28;20386;-78
2023/08/30 04:32:20;;;;;;;1.30;0.73;;;;;;;22.55;63.49;100117.88;5071890;28;20383;-77
2023/08/30 04:34:45;;;;;;;1.20;0.83;;;;;;;22.47;63.44;100119.19;5069638;28;20747;-77
2023/08/30 04:37:11;;;;;;;2.28;1.35;;;;;;;22.42;63.90;100129.97;5069368;28;20379;-75
2023/08/30 04:39:36;;;;;;;1.20;0.70;;;;;;;22.41;64.46;100135.63;5069945;28;20474;-77
2023/08/30 04:42:03;;;;;;;2.17;1.20;;;;;;;22.44;64.49;100143.22;5069353;28;20371;-75
2023/08/30 04:44:28;;;;;;;1.67;0.80;;;;;;;22.87;63.76;100157.44;5068119;28;20932;-80
2023/08/30 04:46:55;;;;;;;1.20;0.70;;;;;;;23.12;62.57;100151.31;5051889;28;20399;-75
2023/08/30 04:49:21;;;;;;;1.65;0.82;;;;;;;23.36;61.87;100161.63;5052227;28;20476;-74
2023/08/30 04:51:46;;;;;;;1.27;0.70;;;;;;;23.32;61.42;100155.94;5069608;28;20403;-74
2023/08/30 04:54:12;;;;;;;1.20;0.60;;;;;;;23.22;61.89;100164.03;5070000;28;20414;-74
2023/08/30 04:56:38;;;;;;;1.43;0.67;;;;;;;23.22;61.89;100172.16;5069710;28;20929;-75
2023/08/30 04:59:03;;;;;;;1.48;0.63;;;;;;;23.18;61.73;100168.38;5052011;28;20401;-75
2023/08/30 05:01:32;;;;;;;1.20;0.60;;;;;;;23.16;61.76;100165.13;5070206;28;20426;-75
2023/08/30 05:03:58;;;;;;;1.17;0.63;;;;;;;23.19;61.79;100172.69;5051997;28;20395;-76
2023/08/30 05:06:23;;;;;;;0.70;0.53;;;;;;;23.08;62.28;100161.84;5070459;28;20433;-74
2023/08/30 05:08:49;;;;;;;0.90;0.40;;;;;;;22.82;63.43;100150.13;5052319;28;20761;-76
2023/08/30 05:11:15;;;;;;;0.95;0.52;;;;;;;22.74;64.09;100137.09;5052056;28;20383;-74
2023/08/30 05:13:41;;;;;;;1.13;0.52;;;;;;;22.88;63.92;100137.44;5070266;28;20383;-75
2023/08/30 05:16:06;;;;;;;1.87;1.30;;;;;;;22.78;64.84;100116.59;5069717;28;20726;-75
2023/08/30 05:18:32;;;;;;;1.00;0.67;;;;;;;22.65;65.58;100104.41;5027506;28;20474;-75
2023/08/30 05:20:58;;;;;;;1.05;0.55;;;;;;;22.78;65.32;100113.06;4994874;28;20391;-76
2023/08/30 05:23:23;;;;;;;1.20;0.50;;;;;;;23.04;64.47;100119.38;5027256;28;20394;-74
2023/08/30 05:25:49;;;;;;;0.70;0.40;;;;;;;23.20;64.69;100137.25;5027395;28;20410;-75
2023/08/30 05:28:15;;;;;;;0.90;0.47;;;;;;;23.39;64.06;100132.16;5010997;28;20390;-75
2023/08/30 05:30:42;;;;;;;1.27;0.67;;;;;;;23.53;63.64;100134.31;5010570;28;20371;-75
2023/08/30 05:33:08;;;;;;;1.80;1.30;;;;;;;23.60;63.66;100124.03;5011023;28;20390;-76
2023/08/30 05:35:34;;;;;;;1.15;0.73;;;;;;;23.58;63.14;100118.88;5027626;28;20465;-76
2023/08/30 05:37:59;;;;;;;0.70;0.50;;;;;;;23.54;62.76;100117.81;5026925;28;20378;-75
2023/08/30 05:40:25;;;;;;;1.10;0.70;;;;;;;23.39;62.49;100124.03;5026842;28;20422;-76
2023/08/30 05:42:50;;;;;;;0.70;0.40;;;;;;;23.32;62.42;100111.84;5011090;28;20398;-76
2023/08/30 05:45:16;;;;;;;0.60;0.43;;;;;;;23.45;62.08;100098.59;5011017;28;21008;-74
2023/08/30 05:47:41;;;;;;;0.77;0.70;;;;;;;23.63;61.99;100101.84;5026981;28;20402;-75
2023/08/30 05:50:07;;;;;;;0.90;0.60;;;;;;;23.60;61.85;100113.22;5027348;28;20394;-74
2023/08/30 05:52:33;;;;;;;0.82;0.50;;;;;;;23.58;62.42;100110.78;5026952;28;20974;-75
2023/08/30 05:54:59;;;;;;;0.77;0.60;;;;;;;23.54;62.95;100119.72;5030988;28;20418;-73
2023/08/30 05:57:25;;;;;;;1.17;0.63;;;;;;;23.54;63.08;100127.84;5069436;28;20391;-76
2023/08/30 05:59:51;;;;;;;1.65;0.80;;;;;;;23.48;63.31;100119.72;5069511;28;20394;-74
2023/08/30 06:02:16;;;;;;;0.77;0.60;;;;;;;23.45;63.67;100132.97;5051461;28;20390;-76
2023/08/30 06:04:42;;;;;;;0.97;0.70;;;;;;;23.32;63.63;100134.31;5051753;28;20402;-75
2023/08/30 06:07:08;;;;;;;1.83;1.10;;;;;;;23.41;64.05;100126.47;5051016;28;20414;-76
2023/08/30 06:09:34;;;;;;;0.83;0.50;;;;;;;23.81;62.80;100131.09;5051095;28;20387;-75
2023/08/30 06:11:59;;;;;;;1.98;0.70;;;;;;;23.80;62.52;100134.06;5067527;28;20394;-74
2023/08/30 06:14:26;;;;;;;1.30;1.10;;;;;;;23.72;62.55;100146.22;5069244;28;20399;-76
2023/08/30 06:16:51;;;;;;;1.33;0.70;;;;;;;23.50;63.38;100143.78;5068951;28;20529;-75
2023/08/30 06:19:17;;;;;;;0.68;0.50;;;;;;;23.65;62.78;100138.38;5067791;28;20571;-75
2023/08/30 06:21:42;;;;;;;1.20;0.70;;;;;;;23.63;62.86;100137.84;5069334;28;20715;-76
2023/08/30 06:24:08;;;;;;;1.08;0.73;;;;;;;23.93;62.25;100133.50;5068942;28;20908;-74
2023/08/30 06:26:34;;;;;;;1.07;0.77;;;;;;;24.08;61.89;100132.66;5051518;28;20391;-76
2023/08/30 06:29:00;;;;;;;0.65;0.40;;;;;;;24.27;61.93;100129.38;5051991;28;20463;-75
2023/08/30 06:31:28;;;;;;;0.50;0.38;;;;;;;23.91;62.05;100126.72;5069699;28;20490;-76
2023/08/30 06:33:54;;;;;;;0.80;0.55;;;;;;;23.89;62.57;100135.13;5068718;28;20841;-76
2023/08/30 06:36:22;;;;;;;1.43;0.70;;;;;;;24.22;61.80;100141.03;5068196;28;20415;-78
2023/08/30 06:38:48;;;;;;;0.73;0.50;;;;;;;23.99;61.75;100148.66;5033211;28;20390;-76
2023/08/30 06:41:13;;;;;;;1.23;0.80;;;;;;;24.28;61.73;100158.09;5068797;28;20394;-75
2023/08/30 06:43:39;;;;;;;0.77;0.50;;;;;;;24.39;61.10;100160.47;5068894;28;20382;-74
2023/08/30 06:46:06;;;;;;;0.70;0.50;;;;;;;24.34;60.79;100176.72;5051183;28;20453;-75
2023/08/30 06:48:31;;;;;;;1.00;0.87;;;;;;;24.38;61.06;100183.25;5051039;28;20410;-76
2023/08/30 06:50:58;;;;;;;1.45;0.73;;;;;;;24.61;60.47;100175.59;5049704;28;20434;-76
2023/08/30 06:53:25;;;;;;;0.88;0.50;;;;;;;24.48;60.07;100174.25;5066918;28;20538;-75
2023/08/30 06:56:00;;;;;;;1.27;0.68;;;;;;;24.39;60.20;100171.31;5068100;28;20526;-77
2023/08/30 06:58:26;;;;;;;0.77;0.50;;;;;;;24.54;60.01;100172.38;5068159;28;20460;-77
2023/08/30 07:00:52;;;;;;;3.20;1.05;;;;;;;24.76;59.75;100180.97;5068117;28;20837;-77
2023/08/30 07:03:17;;;;;;;1.75;1.35;;;;;;;24.96;59.41;100184.69;5068191;28;20412;-80
2023/08/30 07:05:49;;;;;;;0.70;0.53;;;;;;;25.00;59.13;100193.88;5050765;28;20990;-77
2023/08/30 07:08:15;;;;;;;0.30;0.30;;;;;;;25.13;58.99;100176.16;5068571;28;20382;-77
2023/08/30 07:10:40;;;;;;;0.80;0.60;;;;;;;25.16;58.69;100173.72;5050447;28;20444;-78
2023/08/30 07:13:10;;;;;;;1.60;1.10;;;;;;;25.36;58.72;100169.28;5067653;28;20533;-77
2023/08/30 07:15:36;;;;;;;0.50;0.50;;;;;;;25.50;57.84;100167.53;5067159;28;20398;-77
2023/08/30 07:18:03;;;;;;;0.82;0.50;;;;;;;25.54;57.84;100154.22;5068865;28;20389;-78
2023/08/30 07:20:29;;;;;;;0.80;0.65;;;;;;;25.30;57.61;100159.53;5068723;28;20390;-79
2023/08/30 07:22:54;;;;;;;0.50;0.30;;;;;;;25.33;57.66;100153.56;5051244;28;20397;-77
2023/08/30 07:25:20;;;;;;;0.50;0.30;;;;;;;25.18;57.54;100149.81;5054212;28;20399;-78
2023/08/30 07:27:46;;;;;;;0.85;0.65;;;;;;;25.39;57.29;100157.88;5071372;28;20750;-78
2023/08/30 07:30:12;;;;;;;0.55;0.40;;;;;;;25.32;57.26;100160.91;5072594;28;20417;-78
2023/08/30 07:32:38;;;;;;;0.50;0.37;;;;;;;25.41;57.36;100155.69;5055098;28;20391;-77
2023/08/30 07:35:05;;;;;;;0.90;0.60;;;;;;;25.32;56.84;100151.94;5072506;28;20839;-77
2023/08/30 07:37:30;;;;;;;0.70;0.55;;;;;;;25.19;56.76;100154.16;5054816;28;20379;-77
2023/08/30 07:39:56;;;;;;;0.63;0.63;;;;;;;25.42;56.81;100161.91;5054702;28;20881;-77
2023/08/30 07:42:21;;;;;;;1.20;0.60;;;;;;;25.37;56.16;100166.28;5072819;28;20526;-77
2023/08/30 07:44:47;;;;;;;0.63;0.50;;;;;;;25.38;56.35;100167.88;5072562;28;20403;-76
2023/08/30 07:47:13;;;;;;;0.53;0.50;;;;;;;25.53;56.63;100177.00;5054663;28;20565;-79
2023/08/30 07:49:39;;;;;;;0.98;0.70;;;;;;;25.59;56.21;100170.47;5072287;28;20382;-78
2023/08/30 07:52:05;;;;;;;0.77;0.50;;;;;;;25.78;56.11;100173.28;5072731;28;20426;-79
2023/08/30 07:54:31;;;;;;;0.55;0.45;;;;;;;25.79;56.26;100169.47;5054416;28;20371;-79
2023/08/30 07:56:56;;;;;;;1.00;0.60;;;;;;;25.76;56.05;100168.13;5054416;28;20519;-78
2023/08/30 07:59:22;;;;;;;0.50;0.40;;;;;;;25.93;56.05;100175.09;5072555;28;20436;-80
2023/08/30 08:01:47;;;;;;;1.40;0.73;;;;;;;26.19;55.65;100175.66;5073272;28;20375;-79
2023/08/30 08:04:13;;;;;;;0.60;0.57;;;;;;;26.37;55.50;100167.84;5054988;28;20908;-79
2023/08/30 08:06:38;;;;;;;0.50;0.40;;;;;;;26.43;55.42;100169.41;5072571;28;20531;-77
2023/08/30 08:09:05;;;;;;;1.00;0.53;;;;;;;26.51;54.92;100168.78;5070750;28;20403;-78
2023/08/30 08:11:31;;;;;;;1.55;0.77;;;;;;;26.55;54.56;100174.44;5070022;28;20382;-79
2023/08/30 08:13:57;;;;;;;1.27;0.70;;;;;;;26.64;54.57;100170.81;5070233;28;20398;-77
2023/08/30 08:16:22;;;;;;;1.58;0.82;;;;;;;26.55;53.95;100171.72;5069186;28;20877;-78
2023/08/30 08:18:48;;;;;;;1.38;0.75;;;;;;;26.43;54.35;100167.50;5070151;28;20444;-80
2023/08/30 08:21:13;;;;;;;0.70;0.50;;;;;;;26.73;54.14;100160.09;5053373;28;20390;-79
2023/08/30 08:23:39;;;;;;;0.87;0.77;;;;;;;26.76;54.10;100166.84;5052191;28;20921;-78
2023/08/30 08:26:05;;;;;;;0.50;0.40;;;;;;;26.96;53.67;100166.59;5052729;28;20456;-78
2023/08/30 08:28:31;;;;;;;0.27;0.20;;;;;;;26.97;53.59;100165.50;5071796;28;20889;-78
2023/08/30 08:30:56;;;;;;;1.17;0.60;;;;;;;27.14;53.96;100172.34;5069462;28;20398;-78
2023/08/30 08:33:23;;;;;;;0.70;0.50;;;;;;;27.14;53.01;100161.47;5071903;28;20376;-77
2023/08/30 08:35:51;;;;;;;0.82;0.50;;;;;;;27.38;53.08;100170.38;5070767;28;20387;-77
2023/08/30 08:38:18;;;;;;;0.73;0.43;;;;;;;27.41;52.73;100174.44;5070807;28;20765;-80
2023/08/30 08:40:43;;;;;;;0.60;0.50;;;;;;;27.39;52.39;100180.16;5053528;28;20387;-79
2023/08/30 08:43:12;;;;;;;0.88;0.57;;;;;;;27.39;52.17;100168.47;5054007;28;20386;-78
2023/08/30 08:45:38;;;;;;;0.90;0.50;;;;;;;27.56;51.79;100163.28;5071524;28;20399;-78
2023/08/30 08:48:07;;;;;;;0.75;0.55;;;;;;;27.73;51.69;100165.47;5053676;28;20413;-78
2023/08/30 08:50:33;;;;;;;0.97;0.77;;;;;;;27.75;51.56;100165.16;5054135;28;20532;-79
2023/08/30 08:53:01;;;;;;;1.13;0.70;;;;;;;27.85;51.37;100160.31;5053408;28;20415;-79
2023/08/30 08:55:31;;;;;;;0.60;0.60;;;;;;;27.93;50.91;100168.94;5071570;28;20824;-77
2023/08/30 08:58:00;;;;;;;1.02;0.60;;;;;;;27.82;51.03;100162.84;5071633;28;20941;-78
2023/08/30 09:00:26;;;;;;;0.60;0.50;;;;;;;27.98;51.04;100166.13;5071248;28;20469;-77
2023/08/30 09:02:54;;;;;;;0.57;0.57;;;;;;;27.99;50.50;100163.13;5071542;28;20379;-78
2023/08/30 09:05:24;;;;;;;0.60;0.40;;;;;;;28.15;50.40;100160.13;5053509;28;20395;-78
2023/08/30 09:07:57;;;;;;;0.95;0.52;;;;;;;28.27;50.25;100165.06;5054315;28;20421;-77
2023/08/30 09:10:23;;;;;;;1.23;0.80;;;;;;;28.32;49.77;100159.50;5053550;28;20391;-79
2023/08/30 09:12:48;;;;;;;0.82;0.60;;;;;;;28.18;49.56;100154.88;5071685;28;20386;-77
2023/08/30 09:15:21;;;;;;;1.15;0.90;;;;;;;28.28;49.32;100151.13;5070934;28;20754;-79
2023/08/30 09:17:46;;;;;;;1.40;0.50;;;;;;;28.38;48.96;100156.41;5053138;28;20394;-78
2023/08/30 09:20:13;;;;;;;0.70;0.60;;;;;;;28.42;48.37;100151.94;5070881;28;20395;-78
2023/08/30 09:22:40;;;;;;;0.43;0.40;;;;;;;28.40;48.42;100153.38;5052288;28;20410;-78
2023/08/30 09:25:10;;;;;;;0.95;0.60;;;;;;;28.53;48.53;100152.56;5070646;28;20560;-79
2023/08/30 09:27:38;;;;;;;0.75;0.45;;;;;;;28.60;48.17;100146.72;5070857;28;20418;-80
2023/08/30 09:30:08;;;;;;;0.50;0.40;;;;;;;28.80;47.75;100148.19;5052784;28;20780;-80
2023/08/30 09:32:45;;;;;;;1.13;0.70;;;;;;;28.85;47.76;100136.38;5070836;28;20379;-78
2023/08/30 09:35:11;;;;;;;0.52;0.52;;;;;;;28.77;47.60;100140.63;5052735;28;20394;-80
2023/08/30 09:37:37;;;;;;;0.85;0.68;;;;;;;28.84;47.33;100145.66;5070472;28;20394;-79
2023/08/30 09:40:03;;;;;;;0.40;0.40;;;;;;;28.73;47.50;100132.25;5070352;28;20379;-78
2023/08/30 09:42:29;;;;;;;0.57;0.50;;;;;;;28.95;47.76;100136.13;5052811;28;20391;-79
2023/08/30 09:44:56;;;;;;;0.73;0.70;;;;;;;28.95;47.34;100127.94;5070525;28;20823;-79
2023/08/30 09:47:24;;;;;;;0.50;0.43;;;;;;;29.01;47.12;100134.09;5052754;28;20375;-81
2023/08/30 09:49:54;;;;;;;0.60;0.45;;;;;;;29.04;47.08;100128.03;5056931;28;20379;-83
2023/08/30 09:52:23;;;;;;;9.30;0.73;;;;;;;29.12;46.95;100128.09;5072173;28;20395;-82
2023/08/30 09:54:50;;;;;;;0.73;0.60;;;;;;;29.11;46.73;100115.56;5070346;28;20881;-81
2023/08/30 09:57:17;;;;;;;0.82;0.57;;;;;;;29.03;46.67;100121.78;5070221;28;20383;-82
2023/08/30 09:59:43;;;;;;;0.70;0.60;;;;;;;28.94;46.89;100116.22;5054011;28;20381;-81
2023/08/30 10:02:09;;;;;;;1.48;0.65;;;;;;;29.04;46.85;100112.44;5053301;28;20395;-82
2023/08/30 10:04:41;;;;;;;0.50;0.40;;;;;;;29.08;46.88;100116.19;5052799;28;20410;-81
2023/08/30 10:07:07;;;;;;;0.73;0.60;;;;;;;29.18;46.35;100115.16;5069533;28;20944;-82
2023/08/30 10:09:33;;;;;;;0.95;0.60;;;;;;;29.24;46.11;100108.44;5052505;28;20394;-82
2023/08/30 10:12:01;;;;;;;0.50;0.40;;;;;;;29.22;46.08;100097.03;5036774;28;20455;-82
2023/08/30 10:14:27;;;;;;;0.85;0.60;;;;;;;29.26;46.08;100100.78;5072946;28;20394;-82
2023/08/30 10:17:07;;;;;;;0.55;0.55;;;;;;;29.37;45.92;100098.59;5053880;28;20813;-81
2023/08/30 10:19:39;;;;;;;1.00;0.50;;;;;;;29.46;45.20;100104.94;5039220;28;20474;-82
2023/08/30 10:22:12;;;;;;;1.88;0.77;;;;;;;29.31;44.89;100094.38;5054568;28;20387;-83
2023/08/30 10:24:58;;;;;;;1.90;0.50;;;;;;;29.25;45.22;100090.16;5071924;28;20421;-83
2023/08/30 10:27:26;;;;;;;0.50;0.45;;;;;;;29.35;45.02;100092.63;5053209;28;20378;-83
2023/08/30 10:29:54;;;;;;;0.50;0.47;;;;;;;29.31;44.52;100091.66;5053816;28;20763;-84
2023/08/30 10:32:21;;;;;;;0.68;0.68;;;;;;;29.41;44.57;100096.88;5052281;28;20735;-82
2023/08/30 10:34:49;;;;;;;0.50;0.47;;;;;;;29.45;44.67;100084.19;5070582;28;20383;-83
2023/08/30 10:37:15;;;;;;;0.50;0.50;;;;;;;29.57;44.49;100086.34;5070917;28;20718;-81
2023/08/30 10:39:42;;;;;;;0.68;0.50;;;;;;;29.45;44.05;100089.66;5053209;28;20391;-83
2023/08/30 10:42:12;;;;;;;0.45;0.45;;;;;;;29.51;43.77;100073.94;5053249;28;20383;-83
2023/08/30 10:44:48;;;;;;;0.30;0.30;;;;;;;29.49;43.01;100068.00;5071170;28;20440;-81
2023/08/30 10:47:23;;;;;;;0.40;0.30;;;;;;;29.57;43.45;100071.88;5052691;28;20456;-81
2023/08/30 10:49:49;;;;;;;0.50;0.40;;;;;;;29.67;43.75;100071.63;5053280;28;20419;-83
2023/08/30 10:52:15;;;;;;;0.30;0.30;;;;;;;29.64;43.09;100074.97;5071649;28;20390;-81
2023/08/30 10:54:40;;;;;;;0.90;0.77;;;;;;;29.68;42.91;100074.03;5071841;28;20389;-81
2023/08/30 10:57:13;;;;;;;1.38;0.60;;;;;;;29.76;42.91;100063.50;5052051;28;20762;-81
2023/08/30 10:59:38;;;;;;;0.52;0.40;;;;;;;29.91;42.69;100068.56;5073536;28;20386;-81
2023/08/30 11:02:07;;;;;;;0.80;0.40;;;;;;;29.98;42.65;100066.16;5071760;28;20386;-82
2023/08/30 11:04:32;;;;;;;0.30;0.30;;;;;;;30.00;41.93;100068.56;5039501;28;20441;-84
2023/08/30 11:06:58;;;;;;;0.40;0.30;;;;;;;29.90;40.30;100058.72;5056610;28;20441;-84
2023/08/30 11:09:24;;;;;;;0.43;0.40;;;;;;;29.95;39.94;100063.25;5074621;28;20397;-84
2023/08/30 11:11:51;;;;;;;0.52;0.35;;;;;;;30.06;39.80;100056.38;5056703;28;20389;-83
2023/08/30 11:14:18;;;;;;;0.60;0.50;;;;;;;30.06;38.54;100054.44;5039829;28;20948;-82
2023/08/30 11:16:45;;;;;;;0.67;0.47;;;;;;;30.02;38.13;100058.13;5072419;28;20399;-81
2023/08/30 11:19:11;;;;;;;0.50;0.43;;;;;;;30.06;38.60;100057.16;5073465;28;20410;-81
2023/08/30 11:21:44;;;;;;;0.38;0.35;;;;;;;30.24;39.00;100055.28;5072206;28;20387;-83
2023/08/30 11:24:09;;;;;;;0.40;0.40;;;;;;;30.26;38.38;100049.50;5055523;28;20422;-82
2023/08/30 11:26:35;;;;;;;0.40;0.40;;;;;;;30.31;39.11;100054.81;5073334;28;20442;-82